Time;durP1;ratioP1;P1;durP2;ratioP2;P2;SDS_P1;SDS_P2;PMS_P1;PMS_P2;Temp;Humidity;BMP_temperature;BMP_pressure;BME280_temperature;BME280_humidity;BME280_pressure;Samples;Min_cycle;Max_cycle;Signal;HPM_P1;HPM_P2
2021/10/16 00:01:16;;;;;;;18.15;10.45;;;;;;;-141.50;100.00;63355.56;4978980;28;20050;-80
2021/10/16 00:03:44;;;;;;;19.95;10.40;;;;;;;-141.50;100.00;63355.56;4980604;28;20042;-79
2021/10/16 00:06:12;;;;;;;17.65;9.80;;;;;;;-141.50;100.00;63355.56;4978794;28;20483;-80
2021/10/16 00:08:41;;;;;;;21.33;11.02;;;;;;;-141.50;100.00;63355.56;4962011;28;20105;-81
2021/10/16 00:11:09;;;;;;;18.13;9.82;;;;;;;-141.50;100.00;63355.56;4980255;28;20057;-81
2021/10/16 00:13:36;;;;;;;18.98;10.00;;;;;;;-141.50;100.00;63355.56;4978326;28;20047;-81
2021/10/16 00:16:09;;;;;;;16.13;9.77;;;;;;;-141.50;100.00;63355.56;4964512;28;20125;-81
2021/10/16 00:18:40;;;;;;;21.13;10.32;;;;;;;-141.50;100.00;63355.56;4978685;28;20049;-81
2021/10/16 00:21:16;;;;;;;20.15;9.88;;;;;;;-141.50;100.00;63355.56;4981310;28;20039;-80
2021/10/16 00:23:46;;;;;;;18.50;10.02;;;;;;;-141.50;100.00;63355.56;4982295;28;20050;-82
2021/10/16 00:26:19;;;;;;;20.65;10.27;;;;;;;-141.50;100.00;63355.56;4962176;28;20069;-80
2021/10/16 00:28:47;;;;;;;22.77;10.32;;;;;;;-141.50;100.00;63355.56;4976458;28;20066;-79
2021/10/16 00:31:14;;;;;;;19.42;11.07;;;;;;;-141.50;100.00;63355.56;4959524;28;20253;-79
2021/10/16 00:33:44;;;;;;;22.23;11.77;;;;;;;-141.50;100.00;63355.56;4957233;28;20113;-79
2021/10/16 00:36:12;;;;;;;25.65;11.55;;;;;;;-141.50;100.00;63355.56;4975929;28;20051;-78
2021/10/16 00:38:39;;;;;;;21.73;11.23;;;;;;;-141.50;100.00;63355.56;4970772;28;20049;-78
2021/10/16 00:41:14;;;;;;;28.02;11.95;;;;;;;-141.50;100.00;63355.56;4993636;28;20045;-78
2021/10/16 00:43:44;;;;;;;22.63;11.93;;;;;;;-141.50;100.00;63355.56;4987665;28;20039;-79
2021/10/16 00:46:14;;;;;;;28.58;13.38;;;;;;;-141.50;100.00;63355.56;4974350;28;20045;-80
2021/10/16 00:48:46;;;;;;;24.20;11.60;;;;;;;-141.50;100.00;63355.56;4957101;28;20046;-78
2021/10/16 00:51:14;;;;;;;26.52;13.10;;;;;;;-141.50;100.00;63355.56;4957053;28;20046;-78
2021/10/16 00:53:42;;;;;;;25.17;12.32;;;;;;;-141.50;100.00;63355.56;4958711;28;20050;-79
2021/10/16 00:56:21;;;;;;;25.95;11.43;;;;;;;-141.50;100.00;63355.56;4973803;28;20530;-79
2021/10/16 00:58:51;;;;;;;25.48;11.40;;;;;;;-141.50;100.00;63355.56;4974273;23;20085;-81
2021/10/16 01:01:17;;;;;;;28.08;13.55;;;;;;;-141.50;100.00;63355.56;4968402;28;20046;-80
2021/10/16 01:03:44;;;;;;;24.63;11.25;;;;;;;-141.50;100.00;63355.56;4969742;28;20093;-80
2021/10/16 01:06:11;;;;;;;21.92;11.02;;;;;;;-141.50;100.00;63355.56;4960694;28;20039;-82
2021/10/16 01:08:39;;;;;;;23.48;11.18;;;;;;;-141.50;100.00;63355.56;4963421;28;20051;-83
2021/10/16 01:11:06;;;;;;;26.63;11.55;;;;;;;-141.50;100.00;63355.56;4957400;28;20081;-81
2021/10/16 01:13:33;;;;;;;18.63;10.68;;;;;;;-141.50;100.00;63355.56;4968983;28;20073;-83
2021/10/16 01:16:00;;;;;;;19.23;10.98;;;;;;;-141.50;100.00;63355.56;4969672;28;20046;-80
2021/10/16 01:18:30;;;;;;;21.17;11.93;;;;;;;-141.50;100.00;63355.56;4952639;28;20109;-80
2021/10/16 01:21:04;;;;;;;24.65;12.02;;;;;;;-141.50;100.00;63355.56;4970635;28;20049;-81
2021/10/16 01:23:33;;;;;;;19.17;9.03;;;;;;;-141.50;100.00;63355.56;4952066;28;20074;-81
2021/10/16 01:26:02;;;;;;;26.30;12.68;;;;;;;-141.50;100.00;63355.56;4951382;28;20249;-81
2021/10/16 01:28:30;;;;;;;25.20;12.40;;;;;;;-141.50;100.00;63355.56;4952370;28;20059;-82
2021/10/16 01:30:56;;;;;;;28.88;13.43;;;;;;;-141.50;100.00;63355.56;4952139;28;20098;-81
2021/10/16 01:33:27;;;;;;;21.65;11.32;;;;;;;-141.50;100.00;63355.56;4951703;28;20042;-81
2021/10/16 01:36:02;;;;;;;21.98;11.68;;;;;;;-141.50;100.00;63355.56;4951969;28;20125;-81
2021/10/16 01:38:29;;;;;;;23.60;12.37;;;;;;;-141.50;100.00;63355.56;4952325;28;20057;-81
2021/10/16 01:40:57;;;;;;;26.90;11.48;;;;;;;-141.50;100.00;63355.56;4971977;28;20051;-83
2021/10/16 01:43:25;;;;;;;21.95;11.77;;;;;;;-141.50;100.00;63355.56;4955235;28;20137;-80
2021/10/16 01:45:52;;;;;;;20.63;11.60;;;;;;;-141.50;100.00;63355.56;4955836;28;20107;-80
2021/10/16 01:48:23;;;;;;;20.77;11.35;;;;;;;-141.50;100.00;63355.56;4972599;28;20114;-85
2021/10/16 01:50:51;;;;;;;24.67;11.80;;;;;;;-141.50;100.00;63355.56;4954169;28;20050;-82
2021/10/16 01:53:18;;;;;;;18.35;10.85;;;;;;;-141.50;100.00;63355.56;4971354;28;20046;-82
2021/10/16 01:55:46;;;;;;;20.83;10.98;;;;;;;-141.50;100.00;63355.56;4938157;28;20110;-81
2021/10/16 01:58:16;;;;;;;20.67;11.07;;;;;;;-141.50;100.00;63355.56;4954154;28;20500;-82
2021/10/16 02:00:46;;;;;;;21.20;10.70;;;;;;;-141.50;100.00;63355.56;4956168;28;20173;-81
2021/10/16 02:03:13;;;;;;;18.77;10.45;;;;;;;-141.50;100.00;63355.56;4959670;28;20077;-81
2021/10/16 02:05:45;;;;;;;22.17;11.23;;;;;;;-141.50;100.00;63355.56;4978247;28;20181;-86
2021/10/16 02:08:12;;;;;;;23.05;11.50;;;;;;;-141.50;100.00;63355.56;4960969;28;20145;-82
2021/10/16 02:10:43;;;;;;;22.05;12.00;;;;;;;-141.50;100.00;63355.56;4977307;28;20078;-82
2021/10/16 02:13:10;;;;;;;23.05;11.52;;;;;;;-141.50;100.00;63355.56;4977274;28;20110;-81
2021/10/16 02:15:36;;;;;;;20.00;10.82;;;;;;;-141.50;100.00;63355.56;4957417;28;20106;-82
2021/10/16 02:18:03;;;;;;;19.67;11.38;;;;;;;-141.50;100.00;63355.56;4975899;28;20098;-81
2021/10/16 02:20:30;;;;;;;18.70;10.77;;;;;;;-141.50;100.00;63355.56;4978065;28;20058;-80
2021/10/16 02:22:56;;;;;;;18.08;10.32;;;;;;;-141.50;100.00;63355.56;4960911;28;20050;-83
2021/10/16 02:25:23;;;;;;;20.13;10.13;;;;;;;-141.50;100.00;63355.56;4965445;28;20109;-82
2021/10/16 02:27:49;;;;;;;22.52;10.95;;;;;;;-141.50;100.00;63355.56;4966148;28;20062;-84
2021/10/16 02:30:16;;;;;;;21.27;11.27;;;;;;;-141.50;100.00;63355.56;4983404;28;20086;-83
2021/10/16 02:32:43;;;;;;;21.83;11.60;;;;;;;-141.50;100.00;63355.56;4981610;28;20065;-85
2021/10/16 02:35:09;;;;;;;24.85;11.13;;;;;;;-141.50;100.00;63355.56;4982388;28;20130;-81
2021/10/16 02:37:36;;;;;;;20.20;10.82;;;;;;;-141.50;100.00;63355.56;4947978;28;20082;-82
2021/10/16 02:40:03;;;;;;;23.10;11.82;;;;;;;-141.50;100.00;63355.56;4981919;28;20043;-84
2021/10/16 02:42:29;;;;;;;19.88;10.32;;;;;;;-141.50;100.00;63355.56;4965520;28;20077;-81
2021/10/16 02:44:59;;;;;;;16.85;9.60;;;;;;;-141.50;100.00;63355.56;4965494;28;20090;-83
2021/10/16 02:47:30;;;;;;;18.75;10.05;;;;;;;-141.50;100.00;63355.56;4982888;28;20046;-83
2021/10/16 02:50:00;;;;;;;22.98;11.00;;;;;;;-141.50;100.00;63355.56;4965847;28;20098;-85
2021/10/16 02:52:27;;;;;;;21.33;11.48;;;;;;;-141.50;100.00;63355.56;4982583;28;20055;-83
2021/10/16 02:54:54;;;;;;;27.95;12.15;;;;;;;-141.50;100.00;63355.56;4964317;28;20058;-83
2021/10/16 02:57:20;;;;;;;25.73;11.65;;;;;;;-141.50;100.00;63355.56;4964619;28;20105;-82
2021/10/16 02:59:48;;;;;;;23.90;12.18;;;;;;;-141.50;100.00;63355.56;4981482;28;20097;-81
2021/10/16 03:02:15;;;;;;;24.90;12.68;;;;;;;-141.50;100.00;63355.56;4981247;28;20039;-83
2021/10/16 03:04:41;;;;;;;69.50;12.95;;;;;;;-141.50;100.00;63355.56;4978099;28;20050;-83
2021/10/16 03:07:08;;;;;;;107.97;15.68;;;;;;;-141.50;100.00;63355.56;4972427;28;20046;-82
2021/10/16 03:09:35;;;;;;;27.92;12.05;;;;;;;-141.50;100.00;63355.56;4939851;28;20098;-82
2021/10/16 03:12:02;;;;;;;24.70;11.65;;;;;;;-141.50;100.00;63355.56;4957637;28;20064;-81
2021/10/16 03:14:28;;;;;;;25.25;11.35;;;;;;;-141.50;100.00;63355.56;4978667;28;20054;-81
2021/10/16 03:16:55;;;;;;;27.73;12.10;;;;;;;-141.50;100.00;63355.56;4978239;28;20050;-82
2021/10/16 03:19:21;;;;;;;28.33;11.82;;;;;;;-141.50;100.00;63355.56;4961061;28;20083;-83
2021/10/16 03:21:48;;;;;;;20.52;10.82;;;;;;;-141.50;100.00;63355.56;4962101;28;20051;-82
2021/10/16 03:24:15;;;;;;;22.20;10.30;;;;;;;-141.50;100.00;63355.56;4979886;28;20085;-81
2021/10/16 03:26:41;;;;;;;24.33;11.15;;;;;;;-141.50;100.00;63355.56;4961877;28;20134;-82
2021/10/16 03:29:08;;;;;;;18.75;9.90;;;;;;;-141.50;100.00;63355.56;4978794;28;20051;-81
2021/10/16 03:31:34;;;;;;;17.48;9.68;;;;;;;-141.50;100.00;63355.56;4978708;28;20057;-82
2021/10/16 03:34:01;;;;;;;20.08;9.65;;;;;;;-141.50;100.00;63355.56;4978117;28;20047;-82
2021/10/16 03:36:29;;;;;;;20.45;9.90;;;;;;;-141.50;100.00;63355.56;4977706;28;20043;-82
2021/10/16 03:38:55;;;;;;;19.50;10.05;;;;;;;-141.50;100.00;63355.56;4944255;28;20043;-82
2021/10/16 03:41:22;;;;;;;20.60;9.90;;;;;;;-141.50;100.00;63355.56;4977928;28;20062;-83
2021/10/16 03:43:48;;;;;;;16.08;9.43;;;;;;;-141.50;100.00;63355.56;4977206;28;20113;-83
2021/10/16 03:46:15;;;;;;;19.15;9.57;;;;;;;-141.50;100.00;63355.56;4958957;28;20061;-83
2021/10/16 03:48:42;;;;;;;20.17;9.60;;;;;;;-141.50;100.00;63355.56;4976607;28;20043;-80
2021/10/16 03:51:09;;;;;;;20.75;10.38;;;;;;;-141.50;100.00;63355.56;4979182;28;20106;-84
2021/10/16 03:53:36;;;;;;;24.05;10.40;;;;;;;-141.50;100.00;63355.56;4945688;28;20051;-82
2021/10/16 03:56:03;;;;;;;19.23;9.68;;;;;;;-141.50;100.00;63355.56;4959534;28;20059;-85
2021/10/16 03:58:30;;;;;;;18.67;9.77;;;;;;;-141.50;100.00;63355.56;4942955;28;20479;-82
2021/10/16 04:01:01;;;;;;;20.13;9.63;;;;;;;-141.50;100.00;63355.56;4976615;28;20066;-84
2021/10/16 04:03:28;;;;;;;24.52;10.18;;;;;;;-141.50;100.00;63355.56;4976662;28;20440;-83
2021/10/16 04:05:55;;;;;;;32.05;10.35;;;;;;;-141.50;100.00;63355.56;4977134;28;20102;-84
2021/10/16 04:08:22;;;;;;;20.80;9.73;;;;;;;-141.50;100.00;63355.56;4958274;28;20483;-82
2021/10/16 04:10:48;;;;;;;18.83;10.00;;;;;;;-141.50;100.00;63355.56;4973624;28;20054;-83
2021/10/16 04:13:15;;;;;;;23.83;10.82;;;;;;;-141.50;100.00;63355.56;4952891;28;20511;-83
2021/10/16 04:15:42;;;;;;;29.00;11.52;;;;;;;-141.50;100.00;63355.56;4938566;28;20109;-81
2021/10/16 04:18:10;;;;;;;22.65;11.15;;;;;;;-141.50;100.00;63355.56;4958735;28;20042;-83
2021/10/16 04:20:36;;;;;;;22.70;10.30;;;;;;;-141.50;100.00;63355.56;4958115;28;20149;-83
2021/10/16 04:23:03;;;;;;;29.58;11.88;;;;;;;-141.50;100.00;63355.56;4957432;28;20072;-82
2021/10/16 04:25:30;;;;;;;23.63;10.75;;;;;;;-141.50;100.00;63355.56;4976001;28;20055;-83
2021/10/16 04:27:57;;;;;;;31.38;13.70;;;;;;;-141.50;100.00;63355.56;4975429;28;20082;-81
2021/10/16 04:30:23;;;;;;;56.33;14.80;;;;;;;-141.50;100.00;63355.56;4972873;28;20043;-83
2021/10/16 04:32:50;;;;;;;51.00;13.73;;;;;;;-141.50;100.00;63355.56;4970638;28;20047;-82
2021/10/16 04:35:17;;;;;;;53.42;12.82;;;;;;;-141.50;100.00;63355.56;4953325;28;20038;-84
2021/10/16 04:37:45;;;;;;;65.22;13.10;;;;;;;-141.50;100.00;63355.56;4953846;28;20061;-81
2021/10/16 04:40:20;;;;;;;49.90;13.02;;;;;;;-141.50;100.00;63355.56;4976472;28;20050;-83
2021/10/16 04:42:50;;;;;;;66.95;12.70;;;;;;;-141.50;100.00;63355.56;4958783;28;20137;-83
2021/10/16 04:45:17;;;;;;;115.72;12.90;;;;;;;-141.50;100.00;63355.56;4958783;28;20074;-81
2021/10/16 04:47:44;;;;;;;69.18;12.77;;;;;;;-141.50;100.00;63355.56;4972344;28;20053;-83
2021/10/16 04:50:11;;;;;;;146.75;13.38;;;;;;;-141.50;100.00;63355.56;4954959;28;20290;-81
2021/10/16 04:52:38;;;;;;;31.45;11.68;;;;;;;-141.50;100.00;63355.56;4945907;28;20628;-82
2021/10/16 04:55:06;;;;;;;75.88;13.68;;;;;;;-141.50;100.00;63355.56;4937108;28;20061;-83
2021/10/16 04:57:33;;;;;;;133.15;13.82;;;;;;;-141.50;100.00;63355.56;4952871;28;20391;-82
2021/10/16 05:00:00;;;;;;;87.07;13.93;;;;;;;-141.50;100.00;63355.56;4976117;28;20047;-83
2021/10/16 05:02:26;;;;;;;50.88;12.95;;;;;;;-141.50;100.00;63355.56;4975217;28;20133;-82
2021/10/16 05:04:54;;;;;;;49.42;11.57;;;;;;;-141.50;100.00;63355.56;4957701;28;20047;-83
2021/10/16 05:07:21;;;;;;;22.40;11.18;;;;;;;-141.50;100.00;63355.56;4975647;28;20043;-83
2021/10/16 05:09:49;;;;;;;25.25;11.65;;;;;;;-141.50;100.00;63355.56;4975675;28;20042;-82
2021/10/16 05:12:16;;;;;;;23.65;11.93;;;;;;;-141.50;100.00;63355.56;4974726;28;20458;-84
2021/10/16 05:14:44;;;;;;;29.48;12.45;;;;;;;-141.50;100.00;63355.56;4957697;28;20054;-83
2021/10/16 05:17:10;;;;;;;24.73;12.48;;;;;;;-141.50;100.00;63355.56;4957333;28;20102;-83
2021/10/16 05:19:37;;;;;;;28.60;11.85;;;;;;;-141.50;100.00;63355.56;4974727;28;20059;-84
2021/10/16 05:22:04;;;;;;;52.28;11.93;;;;;;;-141.50;100.00;63355.56;4956432;28;20280;-82
2021/10/16 05:24:30;;;;;;;41.25;10.95;;;;;;;-141.50;100.00;63355.56;4974745;28;20070;-82
2021/10/16 05:26:57;;;;;;;41.00;12.32;;;;;;;-141.50;100.00;63355.56;4956431;28;20441;-82
2021/10/16 05:29:24;;;;;;;24.15;11.40;;;;;;;-141.50;100.00;63355.56;4974556;28;20454;-84
2021/10/16 05:31:50;;;;;;;36.38;12.73;;;;;;;-141.50;100.00;63355.56;4973297;28;20042;-83
2021/10/16 05:34:17;;;;;;;33.50;12.20;;;;;;;-141.50;100.00;63355.56;4941457;28;20125;-81
2021/10/16 05:36:43;;;;;;;24.38;12.07;;;;;;;-141.50;100.00;63355.56;4978234;28;20051;-84
2021/10/16 05:39:10;;;;;;;27.77;12.13;;;;;;;-141.50;100.00;63355.56;4958600;28;20376;-85
2021/10/16 05:41:37;;;;;;;26.13;12.02;;;;;;;-141.50;100.00;63355.56;4978017;28;20114;-82
2021/10/16 05:44:03;;;;;;;27.05;13.05;;;;;;;-141.50;100.00;63355.56;4978225;28;20051;-81
2021/10/16 05:46:33;;;;;;;23.25;11.82;;;;;;;-141.50;100.00;63355.56;4992176;28;20346;-85
2021/10/16 05:49:00;;;;;;;28.40;12.95;;;;;;;-141.50;100.00;63355.56;4996095;28;20113;-86
2021/10/16 05:51:26;;;;;;;30.88;12.93;;;;;;;-141.50;100.00;63355.56;4961448;28;20065;-83
2021/10/16 05:53:53;;;;;;;24.60;12.82;;;;;;;-141.50;100.00;63355.56;4961432;28;20054;-82
2021/10/16 05:56:20;;;;;;;19.05;9.63;;;;;;;-141.50;100.00;63355.56;4959959;28;20121;-81
2021/10/16 05:58:49;;;;;;;16.52;9.55;;;;;;;-141.50;100.00;63355.56;4977966;28;20140;-84
2021/10/16 06:01:15;;;;;;;21.10;10.30;;;;;;;-141.50;100.00;63355.56;4994087;28;20058;-83
2021/10/16 06:03:42;;;;;;;25.42;11.40;;;;;;;-141.50;100.00;63355.56;4976109;28;20201;-82
2021/10/16 06:06:08;;;;;;;17.98;10.43;;;;;;;-141.50;100.00;63355.56;4974999;28;20129;-84
2021/10/16 06:08:35;;;;;;;21.63;10.65;;;;;;;-141.50;100.00;63355.56;4976254;28;20057;-83
2021/10/16 06:11:03;;;;;;;22.70;10.65;;;;;;;-141.50;100.00;63355.56;4993551;28;20128;-82
2021/10/16 06:13:32;;;;;;;18.70;10.50;;;;;;;-141.50;100.00;63355.56;4993657;28;20214;-84
2021/10/16 06:15:58;;;;;;;21.77;11.25;;;;;;;-141.50;100.00;63355.56;4977033;28;20054;-82
2021/10/16 06:18:26;;;;;;;24.00;11.80;;;;;;;-141.50;100.00;63355.56;4990465;28;20058;-80
2021/10/16 06:20:53;;;;;;;17.52;10.68;;;;;;;-141.50;100.00;63355.56;4957415;28;20442;-82
2021/10/16 06:23:19;;;;;;;18.50;10.52;;;;;;;-141.50;100.00;63355.56;4956681;28;20515;-82
2021/10/16 06:25:47;;;;;;;21.83;12.77;;;;;;;-141.50;100.00;63355.56;4939065;29;20154;-84
2021/10/16 06:28:17;;;;;;;24.08;11.73;;;;;;;-141.50;100.00;63355.56;4970744;28;20039;-83
2021/10/16 06:30:44;;;;;;;24.85;10.80;;;;;;;-141.50;100.00;63355.56;4946339;28;20146;-86
2021/10/16 06:33:11;;;;;;;18.75;10.40;;;;;;;-141.50;100.00;63355.56;4942618;28;20403;-83
2021/10/16 06:35:38;;;;;;;18.42;10.63;;;;;;;-141.50;100.00;63355.56;4974831;28;20042;-85
2021/10/16 06:38:05;;;;;;;24.80;12.85;;;;;;;-141.50;100.00;63355.56;4974968;28;20137;-83
2021/10/16 06:40:32;;;;;;;29.17;14.45;;;;;;;-141.50;100.00;63355.56;4958133;28;20042;-84
2021/10/16 06:42:58;;;;;;;21.13;10.93;;;;;;;-141.50;100.00;63355.56;4956930;28;20110;-82
2021/10/16 06:45:26;;;;;;;20.33;10.48;;;;;;;-141.50;100.00;63355.56;4974518;28;20038;-81
2021/10/16 06:47:52;;;;;;;19.52;11.05;;;;;;;-141.50;100.00;63355.56;4955809;28;20085;-85
2021/10/16 06:50:19;;;;;;;24.30;11.48;;;;;;;-141.50;100.00;63355.56;4961625;28;20141;-82
2021/10/16 06:52:46;;;;;;;18.40;10.52;;;;;;;-141.50;100.00;63355.56;4972940;28;20077;-82
2021/10/16 06:55:12;;;;;;;23.05;11.93;;;;;;;-141.50;100.00;63355.56;4955610;28;20069;-82
2021/10/16 07:00:22;;;;;;;19.15;11.27;;;;;;;-141.50;100.00;63355.56;4947744;29;20462;-79
2021/10/16 07:02:49;;;;;;;23.95;11.32;;;;;;;-141.50;100.00;63355.56;4935816;29;20055;-82
2021/10/16 07:05:15;;;;;;;22.40;11.98;;;;;;;-141.50;100.00;63355.56;4932617;29;20082;-81
2021/10/16 07:07:42;;;;;;;24.52;12.35;;;;;;;-141.50;100.00;63355.56;4927894;29;20047;-80
2021/10/16 07:10:09;;;;;;;28.17;12.88;;;;;;;-141.50;100.00;63355.56;4942638;29;20064;-81
2021/10/16 07:12:36;;;;;;;23.15;11.63;;;;;;;-141.50;100.00;63355.56;4904777;29;20060;-81
2021/10/16 07:15:04;;;;;;;22.10;11.80;;;;;;;-141.50;100.00;63355.56;4919827;29;20137;-79
2021/10/16 07:17:31;;;;;;;24.90;11.98;;;;;;;-141.50;100.00;63355.56;4930787;29;20036;-81
2021/10/16 07:19:58;;;;;;;22.17;12.10;;;;;;;-141.50;100.00;63355.56;4929820;29;20048;-81
2021/10/16 07:22:24;;;;;;;25.17;12.60;;;;;;;-141.50;100.00;63355.56;4930351;29;20051;-81
2021/10/16 07:24:51;;;;;;;26.75;12.57;;;;;;;-141.50;100.00;63355.56;4943213;29;20032;-80
2021/10/16 07:27:18;;;;;;;22.83;13.00;;;;;;;-141.50;100.00;63355.56;4931487;29;20475;-80
2021/10/16 07:29:45;;;;;;;20.95;11.43;;;;;;;-141.50;100.00;63355.56;4915974;29;20055;-81
2021/10/16 07:32:12;;;;;;;29.67;12.57;;;;;;;-141.50;100.00;63355.56;4902118;29;20100;-80
2021/10/16 07:34:38;;;;;;;25.50;13.00;;;;;;;-141.50;100.00;63355.56;4934134;29;20072;-80
2021/10/16 07:37:05;;;;;;;22.70;11.95;;;;;;;-141.50;100.00;63355.56;4915199;29;20211;-80
2021/10/16 07:39:32;;;;;;;23.10;11.45;;;;;;;-141.50;100.00;63355.56;4929620;29;20058;-81
2021/10/16 07:41:59;;;;;;;27.17;11.80;;;;;;;-141.50;100.00;63355.56;4912726;29;20047;-81
2021/10/16 07:44:25;;;;;;;22.65;10.77;;;;;;;-141.50;100.00;63355.56;4911624;29;20111;-80
2021/10/16 07:46:52;;;;;;;23.23;10.00;;;;;;;-141.50;100.00;63355.56;4928528;29;20086;-80
2021/10/16 07:49:19;;;;;;;22.08;8.85;;;;;;;-141.50;100.00;63355.56;4908459;29;20044;-80
2021/10/16 07:51:45;;;;;;;20.92;8.80;;;;;;;-141.50;100.00;63355.56;4924509;29;20048;-79
2021/10/16 07:54:12;;;;;;;18.08;8.75;;;;;;;-141.50;100.00;63355.56;4938310;29;20068;-81
2021/10/16 07:56:38;;;;;;;20.83;8.23;;;;;;;-141.50;100.00;63355.56;4924433;29;20052;-80
2021/10/16 07:59:05;;;;;;;22.92;9.50;;;;;;;-141.50;100.00;63355.56;4911697;29;20056;-81
2021/10/16 08:01:33;;;;;;;24.77;8.68;;;;;;;-141.50;100.00;63355.56;4912902;29;20059;-81
2021/10/16 08:04:00;;;;;;;18.52;7.32;;;;;;;-141.50;100.00;63355.56;4915374;29;20056;-80
2021/10/16 08:06:27;;;;;;;21.23;7.82;;;;;;;-141.50;100.00;63355.56;4929027;29;20055;-80
2021/10/16 08:08:53;;;;;;;20.40;7.68;;;;;;;-141.50;100.00;63355.56;4912910;29;20056;-82
2021/10/16 08:11:21;;;;;;;21.55;5.93;;;;;;;-141.50;100.00;63355.56;4915700;29;20028;-81
2021/10/16 08:13:48;;;;;;;22.75;5.53;;;;;;;-141.50;100.00;63355.56;4929327;29;20070;-79
2021/10/16 08:16:15;;;;;;;21.35;5.15;;;;;;;-141.50;100.00;63355.56;4897188;29;20056;-80
2021/10/16 08:18:42;;;;;;;26.08;5.25;;;;;;;-141.50;100.00;63355.56;4938404;29;20074;-80
2021/10/16 08:21:08;;;;;;;19.00;5.70;;;;;;;-141.50;100.00;63355.56;4926623;29;20055;-80
2021/10/16 08:23:35;;;;;;;18.60;5.70;;;;;;;-141.50;100.00;63355.56;4924022;29;20103;-80
2021/10/16 08:26:02;;;;;;;19.15;5.57;;;;;;;-141.50;100.00;63355.56;4933949;29;20500;-82
2021/10/16 08:28:30;;;;;;;25.67;6.07;;;;;;;-141.50;100.00;63355.56;4937739;29;20183;-81
2021/10/16 08:30:59;;;;;;;23.80;5.70;;;;;;;-141.50;100.00;63355.56;4941915;29;20075;-81
2021/10/16 08:33:26;;;;;;;31.75;5.43;;;;;;;-141.50;100.00;63355.56;4935791;29;20235;-81
2021/10/16 08:35:56;;;;;;;19.63;5.65;;;;;;;-141.50;100.00;63355.56;4932306;29;20441;-80
2021/10/16 08:38:23;;;;;;;20.98;5.40;;;;;;;-141.50;100.00;63355.56;4925704;29;20048;-79
2021/10/16 08:40:50;;;;;;;21.83;6.63;;;;;;;-141.50;100.00;63355.56;4917725;29;20275;-80
2021/10/16 08:43:18;;;;;;;30.15;6.78;;;;;;;-141.50;100.00;63355.56;4917510;29;20044;-81
2021/10/16 08:45:45;;;;;;;30.27;5.88;;;;;;;-141.50;100.00;63355.56;4914019;29;20089;-81
2021/10/16 08:48:16;;;;;;;24.33;5.57;;;;;;;-141.50;100.00;63355.56;4917551;29;20290;-81
2021/10/16 08:50:47;;;;;;;25.83;6.47;;;;;;;-141.50;100.00;63355.56;4917680;29;20048;-82
2021/10/16 08:53:14;;;;;;;24.13;6.03;;;;;;;-141.50;100.00;63355.56;4915431;29;20056;-80
2021/10/16 08:55:43;;;;;;;28.65;5.68;;;;;;;-141.50;100.00;63355.56;4917283;29;20094;-80
2021/10/16 08:58:09;;;;;;;22.75;5.07;;;;;;;-141.50;100.00;63355.56;4932978;29;20052;-80
2021/10/16 09:00:54;;;;;;;22.25;5.40;;;;;;;-141.50;100.00;63355.56;4916557;29;20036;-81
2021/10/16 09:03:31;;;;;;;21.95;5.05;;;;;;;-141.50;100.00;63355.56;4915527;29;20055;-80
2021/10/16 09:06:27;;;;;;;26.83;5.28;;;;;;;-141.50;100.00;63355.56;4914314;29;20387;-81
2021/10/16 09:09:00;;;;;;;21.20;4.45;;;;;;;-141.50;100.00;63355.56;4915122;29;20060;-81
2021/10/16 09:11:38;;;;;;;24.80;4.97;;;;;;;-141.50;100.00;63355.56;4895418;29;20111;-80
2021/10/16 09:14:28;;;;;;;19.02;4.15;;;;;;;-141.50;100.00;63355.56;4895961;29;20044;-81
2021/10/16 09:17:01;;;;;;;22.20;3.60;;;;;;;-141.50;100.00;63355.56;4913495;29;20052;-79
2021/10/16 09:19:31;;;;;;;18.02;3.35;;;;;;;-141.50;100.00;63355.56;4898222;29;20060;-80
2021/10/16 09:22:01;;;;;;;14.63;3.30;;;;;;;-141.50;100.00;63355.56;4913588;29;20052;-80
2021/10/16 09:24:34;;;;;;;20.15;3.67;;;;;;;-141.50;100.00;63355.56;4897472;29;20064;-79
2021/10/16 09:27:24;;;;;;;16.85;2.65;;;;;;;-141.50;100.00;63355.56;4895553;29;20052;-80
2021/10/16 09:30:00;;;;;;;17.27;3.47;;;;;;;-141.50;100.00;63355.56;4897499;29;20056;-80
2021/10/16 09:32:31;;;;;;;16.52;3.42;;;;;;;-141.50;100.00;63355.56;4914594;29;20044;-80
2021/10/16 09:35:00;;;;;;;12.30;3.17;;;;;;;-141.50;100.00;63355.56;4914130;29;20056;-80
2021/10/16 09:37:27;;;;;;;15.60;3.40;;;;;;;-141.50;100.00;63355.56;4896362;29;20059;-80
2021/10/16 09:39:56;;;;;;;16.33;3.30;;;;;;;-141.50;100.00;63355.56;4897193;29;20055;-80
2021/10/16 09:42:43;;;;;;;12.75;3.15;;;;;;;-141.50;100.00;63355.56;4900046;29;20044;-80
2021/10/16 09:45:13;;;;;;;15.60;3.00;;;;;;;-141.50;100.00;63355.56;4913686;29;20050;-80
2021/10/16 09:47:57;;;;;;;12.60;2.50;;;;;;;-141.50;100.00;63355.56;4896369;29;20052;-81
2021/10/16 09:50:24;;;;;;;13.27;2.60;;;;;;;-141.50;100.00;63355.56;4913383;29;20063;-81
2021/10/16 09:52:52;;;;;;;15.00;2.97;;;;;;;-141.50;100.00;63355.56;4900491;29;20039;-81
2021/10/16 09:55:19;;;;;;;21.63;2.90;;;;;;;-141.50;100.00;63355.56;4897201;29;20058;-81
2021/10/16 09:57:46;;;;;;;21.52;2.67;;;;;;;-141.50;100.00;63355.56;4896177;29;20090;-81
2021/10/16 10:00:15;;;;;;;13.20;2.45;;;;;;;-141.50;100.00;63355.56;4896858;29;20052;-81
2021/10/16 10:02:49;;;;;;;14.88;2.88;;;;;;;-141.50;100.00;63355.56;4913926;29;20056;-81
2021/10/16 10:05:20;;;;;;;14.07;3.15;;;;;;;-141.50;100.00;63355.56;4908432;29;20044;-81
2021/10/16 10:07:48;;;;;;;15.88;3.10;;;;;;;-141.50;100.00;63355.56;4897105;29;20067;-81
2021/10/16 10:10:15;;;;;;;14.43;3.05;;;;;;;-141.50;100.00;63355.56;4913060;29;20044;-81
2021/10/16 10:12:42;;;;;;;17.98;3.47;;;;;;;-141.50;100.00;63355.56;4896583;29;20048;-80
2021/10/16 10:15:09;;;;;;;19.55;3.33;;;;;;;-141.50;100.00;63355.56;4911641;29;20075;-81
2021/10/16 10:17:36;;;;;;;16.67;3.13;;;;;;;-141.50;100.00;63355.56;4879019;29;20048;-81
2021/10/16 10:20:06;;;;;;;15.85;3.20;;;;;;;-141.50;100.00;63355.56;4904140;29;20397;-80
2021/10/16 10:22:36;;;;;;;19.35;3.95;;;;;;;-141.50;100.00;63355.56;4913567;29;20107;-80
2021/10/16 10:25:25;;;;;;;16.63;3.17;;;;;;;-141.50;100.00;63355.56;4913862;29;20516;-80
2021/10/16 10:27:54;;;;;;;15.60;3.60;;;;;;;-141.50;100.00;63355.56;4897913;29;20052;-81
2021/10/16 10:30:38;;;;;;;19.92;3.60;;;;;;;-141.50;100.00;63355.56;4898622;29;20040;-81
2021/10/16 10:33:21;;;;;;;18.10;4.47;;;;;;;-141.50;100.00;63355.56;4914069;29;20048;-81
2021/10/16 10:35:58;;;;;;;22.40;5.85;;;;;;;-141.50;100.00;63355.56;4913657;29;20050;-81
2021/10/16 10:38:32;;;;;;;13.25;3.70;;;;;;;-141.50;100.00;63355.56;4917401;29;20055;-82
2021/10/16 10:41:21;;;;;;;16.08;3.75;;;;;;;-141.50;100.00;63355.56;4919001;29;20052;-81
2021/10/16 10:43:48;;;;;;;12.15;3.08;;;;;;;-141.50;100.00;63355.56;4907086;29;20055;-81
2021/10/16 10:46:15;;;;;;;13.23;3.08;;;;;;;-141.50;100.00;63355.56;4896770;29;20415;-81
2021/10/16 10:48:46;;;;;;;15.02;3.50;;;;;;;-141.50;100.00;63355.56;4899282;29;20052;-81
2021/10/16 10:51:37;;;;;;;15.23;3.15;;;;;;;-141.50;100.00;63355.56;4914188;29;20449;-81
2021/10/16 10:54:15;;;;;;;18.02;3.45;;;;;;;-141.50;100.00;63355.56;4912114;29;20044;-81
2021/10/16 10:56:51;;;;;;;14.75;3.22;;;;;;;-141.50;100.00;63355.56;4919904;29;20051;-79
2021/10/16 10:59:19;;;;;;;14.07;3.38;;;;;;;-141.50;100.00;63355.56;4918933;29;20125;-80
2021/10/16 11:01:51;;;;;;;17.05;3.95;;;;;;;-141.50;100.00;63355.56;4904259;29;20048;-81
2021/10/16 11:04:35;;;;;;;18.35;3.58;;;;;;;-141.50;100.00;63355.56;4936136;29;20114;-81
2021/10/16 11:07:05;;;;;;;13.70;3.17;;;;;;;-141.50;100.00;63355.56;4932315;29;20421;-81